Time;durP1;ratioP1;P1;durP2;ratioP2;P2;SDS_P1;SDS_P2;PMS_P1;PMS_P2;Temp;Humidity;BMP_temperature;BMP_pressure;BME280_temperature;BME280_humidity;BME280_pressure;Samples;Min_cycle;Max_cycle;Signal;HPM_P1;HPM_P2
2022/04/14 00:00:24;;;;;;;34.80;22.07;;;13.00;99.90;;;;;;5134492;27;20241;-47
2022/04/14 00:02:55;;;;;;;42.47;23.80;;;13.00;99.90;;;;;;5134289;27;20669;-44
2022/04/14 00:05:22;;;;;;;35.13;21.83;;;13.00;99.90;;;;;;5134474;27;20192;-45
2022/04/14 00:07:47;;;;;;;34.50;22.93;;;13.00;99.90;;;;;;5135220;27;20224;-44
2022/04/14 00:10:14;;;;;;;35.07;22.67;;;12.90;99.90;;;;;;5134207;27;20184;-44
2022/04/14 00:12:41;;;;;;;34.13;23.30;;;12.90;99.90;;;;;;5134522;27;20208;-47
2022/04/14 00:15:07;;;;;;;39.80;25.43;;;12.90;99.90;;;;;;5134161;27;20173;-45
2022/04/14 00:17:34;;;;;;;36.20;25.27;;;12.90;99.90;;;;;;5133940;27;20204;-45
2022/04/14 00:20:08;;;;;;;42.40;26.87;;;12.90;99.90;;;;;;5134097;27;20219;-45
2022/04/14 00:22:34;;;;;;;40.87;27.47;;;12.90;99.90;;;;;;5134418;27;20626;-44
2022/04/14 00:25:00;;;;;;;44.57;28.20;;;12.90;99.90;;;;;;5134247;27;20197;-45
2022/04/14 00:27:25;;;;;;;45.77;27.80;;;12.90;99.90;;;;;;5133931;28;20193;-45
2022/04/14 00:29:51;;;;;;;41.27;27.67;;;12.90;99.90;;;;;;5133877;28;20174;-43
2022/04/14 00:32:17;;;;;;;44.03;28.20;;;12.90;99.90;;;;;;5134000;27;20173;-45
2022/04/14 00:34:43;;;;;;;47.47;28.90;;;12.90;99.90;;;;;;5134017;28;20261;-44
2022/04/14 00:37:12;;;;;;;48.90;29.97;;;12.80;99.90;;;;;;5134214;27;20202;-46
2022/04/14 00:39:38;;;;;;;48.87;29.37;;;12.80;99.90;;;;;;5133787;27;20193;-45
2022/04/14 00:42:10;;;;;;;48.70;30.70;;;12.80;99.90;;;;;;5133913;28;20547;-45
2022/04/14 00:44:35;;;;;;;47.77;30.07;;;12.90;99.90;;;;;;5134097;27;20632;-45
2022/04/14 00:47:01;;;;;;;52.57;30.83;;;12.80;99.90;;;;;;5133759;28;20298;-44
2022/04/14 00:49:27;;;;;;;46.13;29.07;;;12.80;99.90;;;;;;5133800;27;20644;-45
2022/04/14 00:51:52;;;;;;;50.70;31.23;;;12.80;99.90;;;;;;5132502;28;20197;-46
2022/04/14 00:54:18;;;;;;;38.50;25.60;;;12.80;99.90;;;;;;5133792;28;20170;-45
2022/04/14 00:56:44;;;;;;;38.20;25.50;;;12.80;99.90;;;;;;5134947;27;20281;-45
2022/04/14 00:59:09;;;;;;;41.77;26.00;;;12.80;99.90;;;;;;5139280;27;20170;-46
2022/04/14 01:01:35;;;;;;;41.20;25.93;;;12.80;99.90;;;;;;5138321;27;20176;-43
2022/04/14 01:04:02;;;;;;;38.17;24.83;;;12.80;99.90;;;;;;5137082;27;20665;-44
2022/04/14 01:06:28;;;;;;;40.97;25.00;;;12.80;99.90;;;;;;5137526;27;20225;-45
2022/04/14 01:11:39;;;;;;;36.60;24.83;;;12.80;99.90;;;;;;5137756;27;20181;-43
2022/04/14 01:14:05;;;;;;;43.10;25.20;;;12.70;99.90;;;;;;5137590;27;20209;-45
2022/04/14 01:16:30;;;;;;;34.80;23.17;;;12.80;99.90;;;;;;5137610;27;20227;-47
2022/04/14 01:18:56;;;;;;;35.30;24.20;;;12.70;99.90;;;;;;5137242;27;20273;-45
2022/04/14 01:21:21;;;;;;;39.63;24.67;;;12.70;99.90;;;;;;5137433;27;20597;-46
2022/04/14 01:23:48;;;;;;;38.53;25.10;;;12.70;99.90;;;;;;5137214;27;20177;-44
2022/04/14 01:26:14;;;;;;;38.97;24.30;;;12.70;99.90;;;;;;5137305;27;20217;-43
2022/04/14 01:28:39;;;;;;;39.40;25.90;;;12.60;99.90;;;;;;5137341;27;20265;-45
2022/04/14 01:31:05;;;;;;;41.03;25.97;;;12.70;99.90;;;;;;5137642;27;20197;-45
2022/04/14 01:33:31;;;;;;;44.17;27.43;;;12.70;99.90;;;;;;5137001;27;20162;-44
2022/04/14 01:35:56;;;;;;;41.87;26.83;;;12.70;99.90;;;;;;5136929;27;20242;-46
2022/04/14 01:38:22;;;;;;;47.30;27.87;;;12.60;99.90;;;;;;5136769;27;20552;-42
2022/04/14 01:40:47;;;;;;;48.80;28.50;;;12.60;99.90;;;;;;5137182;27;20173;-42
2022/04/14 01:43:13;;;;;;;36.57;23.93;;;12.60;99.90;;;;;;5135571;27;20181;-44
2022/04/14 01:45:38;;;;;;;39.37;23.80;;;12.60;99.90;;;;;;5137187;27;20204;-45
2022/04/14 01:48:04;;;;;;;39.50;24.47;;;12.50;99.90;;;;;;5136655;27;20211;-45
2022/04/14 01:50:30;;;;;;;37.67;24.27;;;12.60;99.90;;;;;;5137217;27;20527;-44
2022/04/14 01:52:56;;;;;;;34.80;22.10;;;12.50;99.90;;;;;;5136886;27;20189;-46
2022/04/14 01:55:21;;;;;;;35.63;22.90;;;12.60;99.90;;;;;;5136853;27;20250;-43
2022/04/14 01:57:47;;;;;;;34.40;22.77;;;12.50;99.90;;;;;;5137093;27;20225;-45
2022/04/14 02:00:13;;;;;;;38.30;21.77;;;12.50;99.90;;;;;;5136561;27;20245;-45
2022/04/14 02:02:40;;;;;;;32.60;20.33;;;12.50;99.90;;;;;;5136590;27;20168;-45
2022/04/14 02:05:06;;;;;;;31.47;20.60;;;12.40;99.90;;;;;;5136454;27;20204;-47
2022/04/14 02:07:31;;;;;;;31.20;20.23;;;12.40;99.90;;;;;;5136145;27;20662;-45
2022/04/14 02:09:57;;;;;;;31.93;20.63;;;12.40;99.90;;;;;;5136581;27;20234;-45
2022/04/14 02:12:24;;;;;;;35.73;23.00;;;12.40;99.90;;;;;;5136533;27;20177;-45
2022/04/14 02:14:50;;;;;;;33.93;22.30;;;12.30;99.90;;;;;;5136432;27;20181;-45
2022/04/14 02:17:15;;;;;;;35.53;21.83;;;12.30;99.90;;;;;;5136155;27;20556;-44
2022/04/14 02:19:41;;;;;;;33.63;21.77;;;12.30;99.90;;;;;;5136060;27;20178;-46
2022/04/14 02:22:07;;;;;;;36.13;23.63;;;12.30;99.90;;;;;;5136313;27;20178;-45
2022/04/14 02:24:33;;;;;;;39.13;25.53;;;12.30;99.90;;;;;;5136246;27;20189;-44
2022/04/14 02:26:58;;;;;;;41.20;26.30;;;12.30;99.90;;;;;;5135958;27;20685;-43
2022/04/14 02:29:24;;;;;;;36.57;23.70;;;12.30;99.90;;;;;;5135880;27;20261;-45
2022/04/14 02:31:51;;;;;;;30.83;21.10;;;12.30;99.90;;;;;;5135836;27;20166;-44
2022/04/14 02:34:17;;;;;;;41.53;26.17;;;12.20;99.90;;;;;;5136095;27;20260;-45
2022/04/14 02:36:43;;;;;;;45.57;27.60;;;12.20;99.90;;;;;;5135660;27;20288;-45
2022/04/14 02:39:09;;;;;;;43.33;26.57;;;12.30;99.90;;;;;;5135622;27;20189;-45
2022/04/14 02:41:35;;;;;;;42.90;26.87;;;12.20;99.90;;;;;;5135573;27;20260;-44
2022/04/14 02:44:00;;;;;;;44.73;27.00;;;12.20;99.90;;;;;;5135807;27;20197;-45
2022/04/14 02:46:26;;;;;;;38.90;25.77;;;12.20;99.90;;;;;;5135564;27;20209;-45
2022/04/14 02:48:52;;;;;;;45.00;26.43;;;12.20;99.90;;;;;;5135790;27;20169;-45
2022/04/14 02:51:17;;;;;;;37.83;24.07;;;12.20;99.90;;;;;;5135484;27;20177;-46
2022/04/14 02:53:43;;;;;;;42.87;27.30;;;12.10;99.90;;;;;;5135394;27;20561;-46
2022/04/14 02:56:10;;;;;;;39.73;26.23;;;12.10;99.90;;;;;;5135299;27;20238;-42
2022/04/14 02:58:37;;;;;;;39.93;25.33;;;12.10;99.90;;;;;;5135536;27;20181;-42
2022/04/14 03:01:03;;;;;;;42.00;26.47;;;12.00;99.90;;;;;;5135304;27;20177;-46
2022/04/14 03:03:29;;;;;;;44.37;28.37;;;12.10;99.90;;;;;;5135206;27;20202;-45
2022/04/14 03:05:54;;;;;;;37.43;25.03;;;12.10;99.90;;;;;;5135084;27;20718;-42
2022/04/14 03:08:20;;;;;;;39.73;25.07;;;12.00;99.90;;;;;;5135114;27;20257;-44
2022/04/14 03:10:46;;;;;;;34.77;23.83;;;12.00;99.90;;;;;;5135343;27;20265;-44
2022/04/14 03:13:12;;;;;;;34.30;22.20;;;12.00;99.90;;;;;;5135102;27;20518;-45
2022/04/14 03:15:37;;;;;;;32.83;22.00;;;12.00;99.90;;;;;;5135043;27;20180;-45
2022/04/14 03:18:03;;;;;;;29.93;21.17;;;11.90;99.90;;;;;;5134925;27;20206;-45
2022/04/14 03:20:29;;;;;;;32.93;22.17;;;11.90;99.90;;;;;;5134320;27;20643;-43
2022/04/14 03:22:58;;;;;;;30.43;21.17;;;11.90;99.90;;;;;;5135001;27;20590;-46
2022/04/14 03:25:24;;;;;;;32.27;21.47;;;11.90;99.90;;;;;;5135092;27;20608;-44
2022/04/14 03:27:50;;;;;;;30.90;20.93;;;11.90;99.90;;;;;;5134737;27;20273;-45
2022/04/14 03:30:16;;;;;;;28.70;19.20;;;11.90;99.90;;;;;;5134814;27;20581;-45
2022/04/14 03:32:45;;;;;;;29.40;19.87;;;11.80;99.90;;;;;;5134832;27;20210;-44
2022/04/14 03:35:13;;;;;;;25.70;18.67;;;11.80;99.90;;;;;;5135025;27;20189;-45
2022/04/14 03:37:39;;;;;;;26.80;19.20;;;11.70;99.90;;;;;;5134697;27;20248;-44
2022/04/14 03:40:06;;;;;;;28.57;19.57;;;11.70;99.90;;;;;;5134566;27;20193;-44
2022/04/14 03:42:31;;;;;;;27.23;18.93;;;11.70;99.90;;;;;;5134609;27;20181;-44
2022/04/14 03:44:58;;;;;;;29.93;20.00;;;11.70;99.90;;;;;;5134753;27;20227;-46
2022/04/14 03:47:24;;;;;;;29.00;18.97;;;11.70;99.90;;;;;;5134435;27;20192;-45
2022/04/14 03:49:50;;;;;;;29.10;18.73;;;11.70;99.90;;;;;;5134731;27;20626;-42
2022/04/14 03:52:16;;;;;;;25.30;18.30;;;11.70;99.90;;;;;;5134982;27;20198;-45
2022/04/14 03:54:41;;;;;;;25.50;18.77;;;11.70;99.90;;;;;;5134404;27;20176;-45
2022/04/14 03:57:07;;;;;;;26.13;18.13;;;11.60;99.90;;;;;;5134532;27;20646;-44
2022/04/14 03:59:33;;;;;;;24.23;17.73;;;11.60;99.90;;;;;;5134390;27;20271;-43
2022/04/14 04:01:59;;;;;;;25.77;18.60;;;11.60;99.90;;;;;;5134553;27;20176;-39
2022/04/14 04:04:24;;;;;;;25.83;17.23;;;11.50;99.90;;;;;;5134261;27;20176;-39
2022/04/14 04:06:50;;;;;;;22.80;16.70;;;11.50;99.90;;;;;;5134374;27;20223;-39
2022/04/14 04:09:15;;;;;;;24.00;16.87;;;11.50;99.90;;;;;;5134214;28;20180;-42
2022/04/14 04:11:41;;;;;;;23.47;16.13;;;11.50;99.90;;;;;;5134509;28;20212;-40
2022/04/14 04:14:07;;;;;;;17.30;13.80;;;11.40;99.90;;;;;;5134250;27;20169;-42
2022/04/14 04:16:33;;;;;;;20.53;14.40;;;11.40;99.90;;;;;;5134257;28;20207;-43
2022/04/14 04:18:58;;;;;;;19.43;14.33;;;11.40;99.90;;;;;;5132888;28;20185;-43
2022/04/14 04:21:26;;;;;;;18.57;13.40;;;11.40;99.90;;;;;;5134286;28;20184;-42
2022/04/14 04:23:53;;;;;;;20.83;14.57;;;11.30;99.90;;;;;;5135868;27;20597;-40
2022/04/14 04:26:18;;;;;;;19.07;14.53;;;11.30;99.90;;;;;;5135473;27;20248;-42
2022/04/14 04:28:44;;;;;;;19.63;14.03;;;11.30;99.90;;;;;;5134994;28;20212;-39
2022/04/14 04:31:10;;;;;;;22.33;14.23;;;11.30;99.90;;;;;;5134394;27;20174;-42
2022/04/14 04:33:35;;;;;;;20.30;15.20;;;11.30;99.90;;;;;;5138527;27;20181;-41
2022/04/14 04:36:01;;;;;;;22.00;14.83;;;11.30;99.90;;;;;;5138709;27;20204;-47
2022/04/14 04:38:26;;;;;;;21.87;15.47;;;11.20;99.90;;;;;;5139692;27;20266;-45
2022/04/14 04:40:52;;;;;;;22.27;15.20;;;11.30;99.90;;;;;;5140117;27;20218;-45
2022/04/14 04:43:18;;;;;;;16.57;13.03;;;11.30;99.90;;;;;;5138429;27;20220;-46
2022/04/14 04:45:44;;;;;;;19.07;13.73;;;11.20;99.90;;;;;;5139826;27;20212;-45
2022/04/14 04:48:10;;;;;;;18.17;13.10;;;11.20;99.90;;;;;;5139727;27;20256;-44
2022/04/14 04:50:36;;;;;;;19.27;14.23;;;11.20;99.90;;;;;;5139296;27;20612;-47
2022/04/14 04:53:01;;;;;;;18.60;13.17;;;11.20;99.90;;;;;;5138971;27;20211;-44
2022/04/14 04:55:27;;;;;;;19.30;14.00;;;11.10;99.90;;;;;;5138963;27;20277;-47
2022/04/14 04:57:52;;;;;;;17.77;13.90;;;11.10;99.90;;;;;;5138994;27;20185;-47
2022/04/14 05:00:18;;;;;;;19.50;13.80;;;11.10;99.90;;;;;;5139800;27;20195;-47
2022/04/14 05:02:45;;;;;;;18.90;14.23;;;11.00;99.90;;;;;;5139063;27;20256;-45
2022/04/14 05:05:10;;;;;;;17.30;12.23;;;11.10;99.90;;;;;;5138575;27;20285;-45
2022/04/14 05:07:36;;;;;;;17.87;13.03;;;11.10;99.90;;;;;;5138265;27;20313;-46
2022/04/14 05:10:02;;;;;;;18.40;13.30;;;11.00;99.90;;;;;;5138725;27;20173;-46
2022/04/14 05:12:27;;;;;;;15.60;12.13;;;11.00;99.90;;;;;;5138362;27;20181;-44
2022/04/14 05:14:53;;;;;;;17.13;11.80;;;11.00;99.90;;;;;;5138962;27;20184;-46
2022/04/14 05:17:19;;;;;;;15.33;11.23;;;11.00;99.90;;;;;;5138282;27;20193;-47
2022/04/14 05:19:45;;;;;;;16.77;11.63;;;11.00;99.90;;;;;;5138684;27;20586;-46
2022/04/14 05:22:10;;;;;;;14.30;11.10;;;10.90;99.90;;;;;;5138078;27;20272;-47
2022/04/14 05:24:36;;;;;;;13.13;10.20;;;11.00;99.90;;;;;;5138209;27;20223;-47
2022/04/14 05:27:01;;;;;;;13.00;9.73;;;10.90;99.90;;;;;;5138042;27;20200;-46
2022/04/14 05:29:27;;;;;;;14.67;10.87;;;10.90;99.90;;;;;;5138047;27;20187;-45
2022/04/14 05:31:53;;;;;;;12.83;10.23;;;10.90;99.90;;;;;;5137985;27;20540;-47
2022/04/14 05:34:18;;;;;;;15.30;10.37;;;10.80;99.90;;;;;;5137710;27;20208;-47
2022/04/14 05:36:44;;;;;;;14.80;10.70;;;10.80;99.90;;;;;;5137285;27;20251;-46
2022/04/14 05:39:10;;;;;;;15.20;10.73;;;10.80;99.90;;;;;;5137402;27;20275;-45
2022/04/14 05:41:35;;;;;;;16.13;11.47;;;10.80;99.90;;;;;;5137328;27;20183;-46
2022/04/14 05:44:01;;;;;;;16.60;11.90;;;10.80;99.90;;;;;;5136815;27;20177;-47
2022/04/14 05:46:26;;;;;;;15.90;11.90;;;10.80;99.90;;;;;;5137309;27;20692;-44
2022/04/14 05:48:52;;;;;;;16.67;11.83;;;10.80;99.90;;;;;;5137161;27;20171;-45
2022/04/14 05:51:20;;;;;;;16.00;12.00;;;10.80;99.90;;;;;;5137009;27;20645;-48
2022/04/14 05:53:49;;;;;;;17.27;12.10;;;10.80;99.90;;;;;;5137246;27;20209;-46
2022/04/14 05:56:16;;;;;;;16.90;11.70;;;10.80;99.90;;;;;;5137147;27;20565;-46
2022/04/14 05:58:42;;;;;;;16.03;11.80;;;10.90;99.90;;;;;;5137202;27;20189;-46
2022/04/14 06:01:08;;;;;;;16.23;10.70;;;10.80;99.90;;;;;;5136833;27;20190;-46
2022/04/14 06:03:33;;;;;;;13.63;10.37;;;10.90;99.90;;;;;;5136692;27;20230;-47
2022/04/14 06:05:59;;;;;;;16.33;12.27;;;10.80;99.90;;;;;;5135362;27;20688;-48
2022/04/14 06:08:24;;;;;;;17.07;12.33;;;10.80;99.90;;;;;;5136697;27;20180;-45
2022/04/14 06:10:50;;;;;;;19.33;13.07;;;10.90;99.90;;;;;;5136498;27;20201;-46
2022/04/14 06:13:16;;;;;;;17.70;13.87;;;10.90;99.90;;;;;;5137161;27;20653;-45
2022/04/14 06:15:42;;;;;;;20.40;13.00;;;11.00;99.90;;;;;;5136568;27;20179;-46
2022/04/14 06:18:08;;;;;;;21.00;13.83;;;11.00;99.90;;;;;;5136344;27;20172;-47
2022/04/14 06:20:33;;;;;;;18.20;12.97;;;11.00;99.90;;;;;;5136793;27;20188;-45
2022/04/14 06:22:59;;;;;;;17.00;12.13;;;11.10;99.90;;;;;;5136343;27;20251;-47
2022/04/14 06:25:25;;;;;;;17.07;12.63;;;11.00;99.90;;;;;;5136295;27;20199;-46
2022/04/14 06:27:52;;;;;;;17.17;11.87;;;11.10;99.90;;;;;;5136552;27;20215;-45
2022/04/14 06:30:19;;;;;;;15.30;11.20;;;11.10;99.90;;;;;;5136327;27;20207;-45
2022/04/14 06:32:58;;;;;;;17.77;13.37;;;11.10;99.90;;;;;;5136442;27;20222;-46
2022/04/14 06:35:25;;;;;;;17.27;13.50;;;11.10;99.90;;;;;;5136404;27;20211;-46
2022/04/14 06:37:50;;;;;;;21.73;14.07;;;11.20;99.90;;;;;;5138585;22;20235;-49
2022/04/14 06:40:16;;;;;;;19.97;15.40;;;11.20;99.90;;;;;;5115418;28;20556;-47
2022/04/14 06:42:42;;;;;;;22.90;15.57;;;11.20;99.90;;;;;;5096853;28;20307;-49
2022/04/14 06:45:08;;;;;;;19.63;14.70;;;11.30;99.90;;;;;;5114989;28;20208;-48
2022/04/14 06:47:33;;;;;;;19.80;14.47;;;11.40;99.90;;;;;;5114936;28;20197;-48
2022/04/14 06:49:59;;;;;;;21.00;14.73;;;11.50;99.90;;;;;;5114931;28;20176;-48
2022/04/14 06:52:25;;;;;;;20.43;15.03;;;11.60;99.90;;;;;;5115221;28;20177;-47
2022/04/14 06:54:50;;;;;;;23.20;15.40;;;11.70;99.90;;;;;;5114014;28;20261;-47
2022/04/14 06:57:17;;;;;;;22.83;14.70;;;11.80;99.90;;;;;;5114810;28;20200;-48
2022/04/14 06:59:43;;;;;;;21.93;15.57;;;11.80;99.90;;;;;;5114653;28;20196;-49
2022/04/14 07:02:08;;;;;;;23.93;15.40;;;11.80;99.90;;;;;;5114685;28;20185;-48
2022/04/14 07:04:34;;;;;;;23.60;16.20;;;11.90;99.90;;;;;;5114862;28;20181;-48
2022/04/14 07:07:00;;;;;;;20.77;14.73;;;12.00;99.90;;;;;;5114885;28;20201;-48
2022/04/14 07:09:29;;;;;;;21.33;15.33;;;12.00;99.90;;;;;;5114907;28;20252;-48
2022/04/14 07:11:56;;;;;;;23.77;15.20;;;12.10;99.90;;;;;;5115340;28;20536;-48
2022/04/14 07:14:21;;;;;;;21.47;14.70;;;12.20;99.90;;;;;;5114810;28;20602;-49
2022/04/14 07:16:47;;;;;;;20.13;15.07;;;12.30;99.90;;;;;;5114625;28;20218;-48
2022/04/14 07:19:12;;;;;;;19.80;14.83;;;12.40;99.90;;;;;;5115519;28;20626;-48
2022/04/14 07:21:38;;;;;;;25.03;16.20;;;12.50;99.90;;;;;;5114765;28;20189;-49
2022/04/14 07:24:05;;;;;;;19.40;13.97;;;12.70;99.90;;;;;;5114424;28;20187;-47
2022/04/14 07:26:30;;;;;;;20.00;13.27;;;12.80;99.90;;;;;;5114141;28;20259;-50
2022/04/14 07:28:56;;;;;;;20.07;12.77;;;13.00;99.90;;;;;;5114255;28;20177;-49
2022/04/14 07:31:21;;;;;;;16.20;10.67;;;13.20;99.90;;;;;;5114525;28;20185;-48
2022/04/14 07:33:47;;;;;;;19.27;10.17;;;13.40;99.90;;;;;;5114148;28;20213;-48
2022/04/14 07:36:18;;;;;;;14.60;9.00;;;13.60;99.90;;;;;;5114046;28;20190;-49
2022/04/14 07:38:44;;;;;;;13.83;9.57;;;13.80;99.90;;;;;;5114021;28;20239;-48
2022/04/14 07:41:10;;;;;;;11.23;9.23;;;14.00;99.90;;;;;;5114605;28;20631;-49
2022/04/14 07:43:35;;;;;;;18.10;9.50;;;14.10;99.90;;;;;;5114250;28;20193;-49
2022/04/14 07:46:01;;;;;;;11.70;8.77;;;14.30;99.90;;;;;;5114027;28;20209;-49
2022/04/14 07:48:27;;;;;;;10.97;8.63;;;14.30;99.90;;;;;;5114396;28;20266;-49
2022/04/14 07:50:52;;;;;;;10.87;8.43;;;14.50;99.90;;;;;;5114144;28;20513;-48
2022/04/14 07:53:18;;;;;;;13.77;8.17;;;14.80;99.90;;;;;;5095899;28;20178;-51
2022/04/14 07:55:44;;;;;;;11.93;8.10;;;15.00;99.90;;;;;;5114246;28;20178;-49
2022/04/14 07:58:10;;;;;;;10.50;7.97;;;15.10;99.90;;;;;;5114097;28;20189;-48
2022/04/14 08:00:37;;;;;;;11.40;8.47;;;15.20;99.90;;;;;;5095666;28;20183;-49
2022/04/14 08:03:05;;;;;;;11.30;8.43;;;15.30;99.90;;;;;;5114024;28;20205;-51
2022/04/14 08:05:36;;;;;;;9.30;7.60;;;15.50;99.90;;;;;;5113510;28;20208;-49
2022/04/14 08:08:10;;;;;;;10.77;7.63;;;15.60;99.90;;;;;;5114605;28;20181;-48
2022/04/14 08:10:35;;;;;;;12.13;7.83;;;15.70;99.90;;;;;;5113732;28;20158;-49
2022/04/14 08:13:02;;;;;;;9.00;6.87;;;15.90;99.90;;;;;;5114291;28;20178;-50
2022/04/14 08:15:31;;;;;;;10.10;6.50;;;16.00;99.90;;;;;;5095355;28;20577;-49
2022/04/14 08:17:57;;;;;;;8.67;6.57;;;16.10;99.90;;;;;;5113922;28;20277;-49
2022/04/14 08:20:24;;;;;;;11.37;6.57;;;16.10;99.90;;;;;;5113950;28;20182;-49
2022/04/14 08:22:54;;;;;;;9.00;6.87;;;16.20;99.90;;;;;;5113624;28;20550;-50
2022/04/14 08:25:25;;;;;;;10.80;7.20;;;16.30;99.90;;;;;;5113876;28;20210;-49
2022/04/14 08:27:55;;;;;;;8.77;6.17;;;16.50;99.90;;;;;;5095296;28;20539;-50
2022/04/14 08:30:23;;;;;;;8.30;6.63;;;16.70;99.90;;;;;;5114255;28;20171;-50
2022/04/14 08:32:50;;;;;;;10.67;7.93;;;16.70;99.90;;;;;;5113921;28;20600;-49
2022/04/14 08:35:18;;;;;;;10.87;7.43;;;16.80;99.90;;;;;;5113569;28;20174;-50
2022/04/14 08:37:44;;;;;;;14.73;8.17;;;16.90;99.90;;;;;;5113528;28;20222;-49
2022/04/14 08:40:13;;;;;;;15.80;10.80;;;17.00;99.90;;;;;;5113572;28;20181;-50
2022/04/14 08:42:51;;;;;;;13.97;10.07;;;17.10;99.90;;;;;;5113423;28;20178;-50
2022/04/14 08:45:21;;;;;;;14.37;10.20;;;17.10;99.90;;;;;;5113857;28;20646;-50
2022/04/14 08:47:49;;;;;;;14.10;10.90;;;17.20;99.90;;;;;;5113478;28;20198;-49
2022/04/14 08:50:16;;;;;;;15.10;11.73;;;17.30;99.90;;;;;;5113662;28;20674;-49
2022/04/14 08:52:42;;;;;;;18.97;13.73;;;17.40;99.90;;;;;;5113634;28;20166;-49
2022/04/14 08:55:11;;;;;;;21.10;13.23;;;17.50;99.90;;;;;;5114064;28;20182;-48
2022/04/14 08:57:38;;;;;;;20.37;14.03;;;17.70;99.90;;;;;;5113774;28;20194;-49
2022/04/14 09:00:07;;;;;;;21.30;14.27;;;17.80;99.90;;;;;;5113694;28;20170;-48
2022/04/14 09:02:34;;;;;;;23.60;16.37;;;17.90;99.90;;;;;;5113650;28;20243;-48
2022/04/14 09:05:02;;;;;;;26.40;17.77;;;18.00;99.90;;;;;;5113441;28;20217;-49
2022/04/14 09:07:28;;;;;;;22.57;15.43;;;18.20;99.90;;;;;;5095162;28;20225;-48
2022/04/14 09:09:54;;;;;;;26.00;18.57;;;18.30;99.90;;;;;;5113272;28;20209;-49
2022/04/14 09:12:19;;;;;;;25.20;17.53;;;18.30;99.90;;;;;;5113623;28;20544;-47
2022/04/14 09:14:46;;;;;;;24.03;18.17;;;18.40;99.90;;;;;;5113587;28;20654;-48
2022/04/14 09:17:12;;;;;;;27.10;18.67;;;18.50;99.90;;;;;;5113480;28;20209;-49
2022/04/14 09:19:38;;;;;;;28.90;19.97;;;18.50;99.90;;;;;;5117003;28;20186;-48
2022/04/14 09:22:09;;;;;;;30.90;20.93;;;18.60;99.90;;;;;;5117133;28;20170;-48
2022/04/14 09:24:44;;;;;;;28.77;21.83;;;18.70;99.90;;;;;;5116636;28;20170;-47
2022/04/14 09:27:29;;;;;;;31.80;21.80;;;18.90;99.90;;;;;;5116659;28;20201;-48
2022/04/14 09:29:57;;;;;;;32.27;24.87;;;18.90;99.90;;;;;;5116912;28;20249;-47
2022/04/14 09:32:37;;;;;;;31.93;24.43;;;19.00;99.90;;;;;;5098322;28;20178;-49
2022/04/14 09:35:05;;;;;;;31.90;22.90;;;19.20;99.90;;;;;;5098216;28;20228;-49
2022/04/14 09:37:32;;;;;;;32.20;24.27;;;19.30;99.90;;;;;;5116334;28;20210;-48
2022/04/14 09:40:05;;;;;;;38.63;22.87;;;19.40;99.90;;;;;;5116426;28;20166;-49
2022/04/14 09:42:33;;;;;;;29.50;22.73;;;19.50;99.90;;;;;;5116934;28;20154;-48
2022/04/14 09:45:25;;;;;;;33.00;23.90;;;19.60;99.90;;;;;;5116178;28;20198;-49
2022/04/14 09:47:53;;;;;;;30.67;22.13;;;19.70;99.90;;;;;;5116136;28;20731;-47
2022/04/14 09:50:35;;;;;;;27.27;20.90;;;19.70;99.90;;;;;;5097900;28;20231;-50
2022/04/14 09:53:06;;;;;;;24.77;19.03;;;19.60;99.90;;;;;;5116423;28;20169;-47
2022/04/14 09:55:35;;;;;;;26.90;20.03;;;19.70;99.90;;;;;;5115966;28;20218;-49
2022/04/14 09:58:06;;;;;;;28.60;21.53;;;19.80;99.90;;;;;;5116320;28;20228;-47
2022/04/14 10:00:46;;;;;;;25.53;19.80;;;20.00;99.90;;;;;;5115968;28;20182;-48
2022/04/14 10:03:12;;;;;;;23.60;18.67;;;20.10;99.90;;;;;;5097641;28;20269;-47
2022/04/14 10:05:38;;;;;;;27.33;20.60;;;20.10;99.90;;;;;;5116001;28;20280;-47
2022/04/14 10:08:07;;;;;;;27.53;22.00;;;20.20;99.90;;;;;;5097626;28;20182;-47
2022/04/14 10:10:34;;;;;;;26.40;20.23;;;20.10;99.90;;;;;;5115770;28;20167;-48
2022/04/14 10:13:07;;;;;;;24.77;18.90;;;20.10;99.90;;;;;;5116139;28;20222;-47
2022/04/14 10:15:35;;;;;;;22.93;18.10;;;20.10;99.90;;;;;;5097445;28;20196;-47
2022/04/14 10:18:16;;;;;;;27.93;19.80;;;20.20;99.90;;;;;;5115691;28;20203;-48
2022/04/14 10:20:44;;;;;;;24.73;18.40;;;20.30;99.90;;;;;;5116313;28;20162;-45
2022/04/14 10:23:12;;;;;;;21.63;16.80;;;20.40;99.90;;;;;;5115982;28;20170;-44
2022/04/14 10:25:39;;;;;;;22.00;18.20;;;20.50;99.90;;;;;;5115423;28;20194;-45
2022/04/14 10:28:14;;;;;;;21.73;17.07;;;20.70;99.90;;;;;;5115754;28;20542;-46
2022/04/14 10:30:44;;;;;;;23.80;18.23;;;21.00;99.90;;;;;;5115681;28;20153;-46
2022/04/14 10:33:12;;;;;;;23.17;18.70;;;21.10;99.90;;;;;;5115597;28;20303;-43
2022/04/14 10:35:37;;;;;;;21.57;17.10;;;21.20;99.90;;;;;;5115669;28;20728;-45
2022/04/14 10:38:19;;;;;;;23.17;18.53;;;21.30;99.90;;;;;;5115184;28;20273;-44
2022/04/14 10:40:53;;;;;;;21.83;17.23;;;21.40;99.90;;;;;;5115628;28;20163;-45
2022/04/14 10:43:20;;;;;;;19.53;15.47;;;21.60;99.90;;;;;;5115400;28;20204;-45
2022/04/14 10:46:06;;;;;;;17.17;14.63;;;21.70;99.90;;;;;;5096660;28;20287;-45
2022/04/14 10:48:39;;;;;;;17.80;14.20;;;21.80;99.90;;;;;;5115288;28;20190;-46
2022/04/14 10:51:26;;;;;;;18.97;14.53;;;21.80;99.90;;;;;;5115618;28;20182;-45
2022/04/14 10:54:06;;;;;;;14.77;11.97;;;21.90;99.90;;;;;;5115480;28;20159;-46
2022/04/14 10:56:34;;;;;;;13.57;12.17;;;22.00;99.90;;;;;;5115388;28;20280;-46
2022/04/14 10:59:00;;;;;;;16.50;14.70;;;22.00;99.90;;;;;;5115168;28;20178;-45
2022/04/14 11:04:28;;;;;;;17.63;11.87;;;22.10;99.90;;;;;;5114831;28;20265;-44
2022/04/14 11:07:04;;;;;;;11.43;10.23;;;22.20;99.90;;;;;;5115148;28;20620;-44
2022/04/14 11:09:38;;;;;;;13.03;9.70;;;22.20;99.90;;;;;;5115588;28;20162;-45
2022/04/14 11:12:14;;;;;;;12.47;10.27;;;22.10;99.90;;;;;;5116472;28;20195;-46
2022/04/14 11:14:51;;;;;;;12.60;9.87;;;22.00;99.90;;;;;;5116735;28;20245;-45
2022/04/14 11:17:36;;;;;;;13.90;11.53;;;21.90;99.90;;;;;;5096492;28;20221;-45
2022/04/14 11:20:20;;;;;;;16.87;12.50;;;21.90;99.90;;;;;;5114857;28;20561;-45
2022/04/14 11:23:08;;;;;;;12.67;11.27;;;22.00;99.90;;;;;;5114481;28;20170;-45
2022/04/14 11:25:39;;;;;;;13.33;11.87;;;22.10;99.90;;;;;;5114305;28;20208;-46
2022/04/14 11:28:26;;;;;;;12.70;10.50;;;22.10;99.90;;;;;;5114622;28;20178;-44
2022/04/14 11:31:03;;;;;;;17.17;14.07;;;22.00;99.90;;;;;;5114976;28;20240;-46
2022/04/14 11:33:31;;;;;;;11.23;9.43;;;21.90;99.90;;;;;;5095951;28;20272;-46
2022/04/14 11:36:10;;;;;;;11.40;10.20;;;21.80;99.90;;;;;;5114247;28;20198;-46
2022/04/14 11:39:04;;;;;;;11.00;7.93;;;21.70;99.90;;;;;;5114134;28;20280;-46
2022/04/14 11:41:44;;;;;;;10.97;7.80;;;21.60;99.90;;;;;;5114050;28;20201;-44
2022/04/14 11:44:21;;;;;;;9.90;7.60;;;21.40;99.90;;;;;;5114354;28;20162;-44
2022/04/14 11:46:55;;;;;;;11.80;9.40;;;21.20;99.90;;;;;;5114042;28;20209;-44
2022/04/14 11:49:26;;;;;;;11.50;10.30;;;21.20;99.90;;;;;;5114222;28;20174;-44
2022/04/14 11:51:53;;;;;;;12.80;11.17;;;21.30;99.90;;;;;;5114002;28;20181;-44
2022/04/14 11:54:33;;;;;;;13.10;9.27;;;21.60;99.90;;;;;;5113897;28;20170;-45
2022/04/14 11:57:18;;;;;;;13.27;10.03;;;21.90;99.90;;;;;;5114081;28;20201;-45
2022/04/14 11:59:45;;;;;;;10.63;7.33;;;22.00;99.90;;;;;;5114218;28;20256;-45
2022/04/14 12:02:14;;;;;;;7.27;6.53;;;22.00;99.90;;;;;;5113868;28;20170;-44
2022/04/14 12:04:43;;;;;;;11.50;8.13;;;22.00;99.90;;;;;;5114073;28;20181;-45
2022/04/14 12:07:09;;;;;;;8.63;6.50;;;22.00;99.90;;;;;;5113737;28;20206;-44
2022/04/14 12:09:37;;;;;;;7.53;6.70;;;21.90;99.90;;;;;;5114056;28;20174;-45
2022/04/14 12:12:13;;;;;;;7.07;6.00;;;21.90;99.90;;;;;;5114002;28;20182;-45
2022/04/14 12:14:44;;;;;;;11.90;6.23;;;22.00;99.90;;;;;;5113999;28;20181;-45
2022/04/14 12:17:10;;;;;;;10.50;8.33;;;22.00;99.90;;;;;;5113987;28;20196;-44
2022/04/14 12:19:43;;;;;;;12.60;9.50;;;22.00;99.90;;;;;;5113969;28;20182;-44
2022/04/14 12:22:09;;;;;;;10.33;9.23;;;22.10;99.90;;;;;;5114099;28;20525;-45
2022/04/14 12:24:35;;;;;;;10.40;7.93;;;22.20;99.90;;;;;;5095685;28;20198;-46
2022/04/14 12:27:00;;;;;;;10.93;8.20;;;22.20;99.90;;;;;;5113491;28;20256;-43
2022/04/14 12:29:27;;;;;;;10.10;7.73;;;22.20;99.90;;;;;;5113634;28;20170;-44
2022/04/14 12:32:13;;;;;;;10.67;7.87;;;22.20;99.90;;;;;;5113728;28;20184;-44
2022/04/14 12:34:43;;;;;;;10.20;8.27;;;22.00;99.90;;;;;;5113584;28;20170;-45
2022/04/14 12:37:13;;;;;;;12.27;8.60;;;21.80;99.90;;;;;;5113915;28;20226;-45